Time;durP1;ratioP1;P1;durP2;ratioP2;P2;SDS_P1;SDS_P2;PMS_P1;PMS_P2;Temp;Humidity;BMP_temperature;BMP_pressure;BME280_temperature;BME280_humidity;BME280_pressure;Samples;Min_cycle;Max_cycle;Signal;HPM_P1;HPM_P2
2022/04/18 00:04:02;;;;;;;18.15;7.75;;;;;;;;;;8395717;28;20373;-81
2022/04/18 00:08:08;;;;;;;15.00;7.05;;;;;;;;;;8396913;28;20044;-80
2022/04/18 00:12:10;;;;;;;16.00;6.88;;;;;;;;;;8399243;28;20044;-81
2022/04/18 00:16:12;;;;;;;17.10;7.20;;;;;;;;;;8395783;28;20118;-82
2022/04/18 00:20:15;;;;;;;;;;;;;;;;;;8396811;28;20633;-81
2022/04/18 00:24:20;;;;;;;16.20;6.57;;;;;;;;;;8378078;28;20487;-81
2022/04/18 00:28:23;;;;;;;13.88;7.25;;;;;;;;;;8368500;28;20136;-84
2022/04/18 00:32:25;;;;;;;11.57;6.47;;;;;;;;;;8375005;28;20421;-82
2022/04/18 00:36:27;;;;;;;;;;;;;;;;;;8390267;28;20412;-81
2022/04/18 00:40:31;;;;;;;14.40;7.03;;;;;;;;;;8370250;28;19927;-80
2022/04/18 00:44:34;;;;;;;15.75;7.32;;;;;;;;;;8396334;28;20045;-82
2022/04/18 00:48:37;;;;;;;20.70;7.75;;;;;;;;;;8397961;28;20048;-79
2022/04/18 00:52:40;;;;;;;18.75;7.45;;;;;;;;;;8396277;28;20048;-81
2022/04/18 00:56:45;;;;;;;15.77;6.65;;;;;;;;;;8396820;28;20045;-79
2022/04/18 01:00:48;;;;;;;21.52;7.80;;;;;;;;;;8366430;28;20041;-80
2022/04/18 01:04:51;;;;;;;12.00;6.53;;;;;;;;;;8364432;28;20045;-78
2022/04/18 01:08:54;;;;;;;17.10;7.85;;;;;;;;;;8364837;28;20408;-80
2022/04/18 01:12:58;;;;;;;14.45;7.43;;;;;;;;;;8384273;28;20476;-79
2022/04/18 01:17:00;;;;;;;15.98;7.00;;;;;;;;;;8386005;28;20075;-81
2022/04/18 01:21:05;;;;;;;21.63;8.32;;;;;;;;;;8397103;28;20102;-81
2022/04/18 01:29:28;;;;;;;15.25;7.93;;;;;;;;;;8397358;28;20101;-80
2022/04/18 01:33:31;;;;;;;;;;;;;;;;;;8376637;28;20136;-81
2022/04/18 01:37:36;;;;;;;17.58;8.10;;;;;;;;;;8364018;28;19967;-81
2022/04/18 01:41:38;;;;;;;16.05;8.00;;;;;;;;;;8363855;28;20049;-79
2022/04/18 01:45:41;;;;;;;19.15;8.55;;;;;;;;;;8368824;28;20047;-78
2022/04/18 01:49:43;;;;;;;17.50;7.80;;;;;;;;;;8392354;28;20040;-81
2022/04/18 01:53:48;;;;;;;16.83;9.05;;;;;;;;;;8395992;28;20051;-82
2022/04/18 01:57:51;;;;;;;19.55;9.30;;;;;;;;;;8403072;28;20056;-82
2022/04/18 02:01:54;;;;;;;20.35;9.35;;;;;;;;;;8403873;28;20090;-80
2022/04/18 02:05:57;;;;;;;;;;;;;;;;;;8401592;28;20043;-79
2022/04/18 02:10:01;;;;;;;15.02;8.18;;;;;;;;;;8403077;28;19927;-83
2022/04/18 02:14:03;;;;;;;17.63;8.73;;;;;;;;;;8403286;28;20057;-83
2022/04/18 02:18:06;;;;;;;24.65;8.98;;;;;;;;;;8403465;28;20055;-83
2022/04/18 02:22:09;;;;;;;21.23;9.55;;;;;;;;;;8401302;28;20052;-84
2022/04/18 02:26:13;;;;;;;21.25;9.57;;;;;;;;;;8381811;28;20131;-82
2022/04/18 02:30:16;;;;;;;17.02;8.63;;;;;;;;;;8402399;28;20072;-81
2022/04/18 02:34:19;;;;;;;23.92;10.25;;;;;;;;;;8402783;28;20048;-83
2022/04/18 02:38:21;;;;;;;16.23;8.15;;;;;;;;;;8402313;28;20048;-83
2022/04/18 02:42:25;;;;;;;17.67;8.95;;;;;;;;;;8397955;28;20040;-82
2022/04/18 02:46:28;;;;;;;19.10;9.65;;;;;;;;;;8401952;28;20049;-83
2022/04/18 02:50:31;;;;;;;19.13;9.20;;;;;;;;;;8402286;28;20067;-86
2022/04/18 02:54:33;;;;;;;15.45;9.23;;;;;;;;;;8381708;28;20044;-82
2022/04/18 02:58:38;;;;;;;22.23;8.55;;;;;;;;;;8394942;28;20056;-83
2022/04/18 03:02:40;;;;;;;18.95;8.25;;;;;;;;;;8396765;28;20091;-82
2022/04/18 03:06:43;;;;;;;19.52;9.00;;;;;;;;;;8368030;28;20052;-82
2022/04/18 03:15:08;;;;;;;17.95;8.82;;;;;;;;;;8386459;28;20052;-80
2022/04/18 03:19:10;;;;;;;18.27;8.30;;;;;;;;;;8400785;28;20075;-82
2022/04/18 03:23:13;;;;;;;21.88;11.13;;;;;;;;;;8401538;28;20490;-83
2022/04/18 03:27:15;;;;;;;24.60;11.10;;;;;;;;;;8401589;28;20463;-82
2022/04/18 03:31:19;;;;;;;21.35;10.32;;;;;;;;;;8389793;28;20055;-82
2022/04/18 03:35:22;;;;;;;19.45;9.70;;;;;;;;;;8370123;28;20049;-83
2022/04/18 03:43:45;;;;;;;22.55;10.35;;;;;;;;;;8401150;28;20048;-82
2022/04/18 03:47:49;;;;;;;39.33;18.10;;;;;;;;;;8392889;28;20052;-81
2022/04/18 03:51:51;;;;;;;52.40;21.30;;;;;;;;;;8366990;28;20048;-81
2022/04/18 03:55:54;;;;;;;42.60;16.58;;;;;;;;;;8374094;28;20049;-81
2022/04/18 03:59:56;;;;;;;49.83;20.88;;;;;;;;;;8400130;28;20048;-80
2022/04/18 04:04:00;;;;;;;48.67;21.13;;;;;;;;;;8399025;28;20048;-83
2022/04/18 04:08:03;;;;;;;34.88;15.80;;;;;;;;;;8366647;28;20118;-83
2022/04/18 04:12:06;;;;;;;19.00;9.77;;;;;;;;;;8369407;28;20143;-84
2022/04/18 04:16:09;;;;;;;18.60;8.48;;;;;;;;;;8398911;28;20056;-83
2022/04/18 04:20:13;;;;;;;17.23;7.97;;;;;;;;;;8399033;28;20400;-83
2022/04/18 04:24:16;;;;;;;17.30;8.45;;;;;;;;;;8372013;28;20068;-82
2022/04/18 04:28:18;;;;;;;22.90;8.65;;;;;;;;;;8365567;28;20049;-82
2022/04/18 04:32:21;;;;;;;21.75;10.05;;;;;;;;;;8386084;28;20125;-83
2022/04/18 04:36:25;;;;;;;19.25;9.40;;;;;;;;;;8398376;28;20049;-82
2022/04/18 04:40:27;;;;;;;18.27;10.13;;;;;;;;;;8378216;28;20045;-84
2022/04/18 04:44:30;;;;;;;22.67;9.52;;;;;;;;;;8393307;28;20426;-84
2022/04/18 04:48:32;;;;;;;19.98;9.57;;;;;;;;;;8399003;28;20485;-83
2022/04/18 04:52:37;;;;;;;26.83;13.05;;;;;;;;;;8397393;28;20072;-82
2022/04/18 04:56:39;;;;;;;24.52;11.50;;;;;;;;;;8384577;28;20127;-82
2022/04/18 05:00:43;;;;;;;15.27;8.40;;;;;;;;;;8364584;28;20048;-83
2022/04/18 05:04:45;;;;;;;29.88;13.07;;;;;;;;;;8370696;28;20522;-83
2022/04/18 05:08:50;;;;;;;14.98;9.73;;;;;;;;;;8373648;28;20051;-84
2022/04/18 05:12:52;;;;;;;22.27;12.15;;;;;;;;;;8370209;28;20060;-84
2022/04/18 05:16:55;;;;;;;33.50;14.77;;;;;;;;;;8389263;28;20052;-83
2022/04/18 05:20:58;;;;;;;41.65;19.17;;;;;;;;;;8385895;28;20062;-84
2022/04/18 05:25:02;;;;;;;38.15;17.25;;;;;;;;;;8397301;28;20407;-84
2022/04/18 05:29:05;;;;;;;32.80;15.90;;;;;;;;;;8391875;28;20047;-84
2022/04/18 05:33:08;;;;;;;28.75;16.13;;;;;;;;;;8367884;28;20049;-84
2022/04/18 05:37:13;;;;;;;22.27;11.40;;;;;;;;;;8361490;28;20057;-83
2022/04/18 05:41:17;;;;;;;25.58;13.43;;;;;;;;;;8381488;28;20644;-84
2022/04/18 05:45:19;;;;;;;20.30;9.45;;;;;;;;;;8396482;28;20052;-83
2022/04/18 05:49:22;;;;;;;16.60;8.45;;;;;;;;;;8388475;28;20097;-82
2022/04/18 05:53:27;;;;;;;19.65;10.38;;;;;;;;;;8392247;28;20052;-83
2022/04/18 05:57:32;;;;;;;16.40;8.93;;;;;;;;;;8389167;28;20053;-84
2022/04/18 06:01:35;;;;;;;17.67;10.45;;;;;;;;;;8396936;28;20499;-83
2022/04/18 06:05:38;;;;;;;16.75;10.27;;;;;;;;;;8395418;28;20045;-82
2022/04/18 06:09:46;;;;;;;20.15;10.77;;;;;;;;;;8393223;28;20053;-84
2022/04/18 06:13:55;;;;;;;33.47;16.42;;;;;;;;;;8367389;28;20488;-84
2022/04/18 06:18:02;;;;;;;17.38;10.55;;;;;;;;;;8374013;28;20051;-82
2022/04/18 06:22:11;;;;;;;19.90;11.45;;;;;;;;;;8385499;28;20499;-82
2022/04/18 06:26:28;;;;;;;17.83;10.15;;;;;;;;;;8394509;28;20047;-82
2022/04/18 06:30:48;;;;;;;15.35;8.70;;;;;;;;;;8394545;28;20484;-81
2022/04/18 06:34:58;;;;;;;13.65;7.93;;;;;;;;;;8387930;28;20455;-81
2022/04/18 06:39:05;;;;;;;11.13;6.75;;;;;;;;;;8394616;28;20049;-81
2022/04/18 06:43:20;;;;;;;10.32;7.20;;;;;;;;;;8399065;28;20451;-81
2022/04/18 06:47:38;;;;;;;9.55;6.40;;;;;;;;;;8401019;28;20044;-81
2022/04/18 06:51:43;;;;;;;17.40;12.05;;;;;;;;;;8401267;28;20504;-82
2022/04/18 07:00:36;;;;;;;6.13;3.42;;;;;;;;;;8396388;28;20074;-81
2022/04/18 07:04:51;;;;;;;9.30;5.55;;;;;;;;;;8382018;28;20045;-81
2022/04/18 07:09:24;;;;;;;10.77;5.75;;;;;;;;;;8371000;28;20037;-83
2022/04/18 07:13:42;;;;;;;25.48;14.30;;;;;;;;;;8393184;28;20083;-81
2022/04/18 07:18:05;;;;;;;5.25;2.78;;;;;;;;;;8382431;28;20072;-81
2022/04/18 07:23:04;;;;;;;3.95;2.55;;;;;;;;;;8392485;28;20503;-84
2022/04/18 07:27:39;;;;;;;4.60;2.70;;;;;;;;;;8387218;28;20049;-81
2022/04/18 07:31:48;;;;;;;6.80;4.57;;;;;;;;;;8388526;28;20128;-79
2022/04/18 07:40:54;;;;;;;8.70;3.45;;;;;;;;;;8397069;28;20125;-84
2022/04/18 07:45:07;;;;;;;11.00;7.60;;;;;;;;;;8385660;28;20048;-82
2022/04/18 07:49:21;;;;;;;5.38;3.67;;;;;;;;;;8395316;28;20071;-82
2022/04/18 07:53:39;;;;;;;10.43;6.35;;;;;;;;;;8396485;28;20060;-81
2022/04/18 07:57:43;;;;;;;6.63;3.50;;;;;;;;;;8400735;28;20123;-84
2022/04/18 08:01:51;;;;;;;11.27;6.32;;;;;;;;;;8382291;28;20044;-80
2022/04/18 08:05:56;;;;;;;4.47;2.40;;;;;;;;;;8389936;28;20052;-83
2022/04/18 08:09:59;;;;;;;4.85;2.50;;;;;;;;;;8403910;28;20044;-74
2022/04/18 08:14:04;;;;;;;5.03;2.88;;;;;;;;;;8402707;28;20079;-75
2022/04/18 08:18:25;;;;;;;4.60;2.30;;;;;;;;;;8383216;28;20040;-77
2022/04/18 08:22:57;;;;;;;6.68;4.35;;;;;;;;;;8380388;28;20056;-77
2022/04/18 08:27:28;;;;;;;9.43;4.65;;;;;;;;;;8379947;28;20044;-82
2022/04/18 08:31:55;;;;;;;5.57;3.00;;;;;;;;;;8395168;28;20477;-77
2022/04/18 08:36:18;;;;;;;9.52;3.50;;;;;;;;;;8401460;28;20047;-85
2022/04/18 08:40:33;;;;;;;5.97;3.47;;;;;;;;;;8391878;28;20132;-78
2022/04/18 08:44:53;;;;;;;11.35;5.95;;;;;;;;;;8392558;28;20041;-78
2022/04/18 08:53:57;;;;;;;7.05;4.60;;;;;;;;;;8366130;28;20071;-80
2022/04/18 08:58:26;;;;;;;6.22;3.53;;;;;;;;;;8364252;28;20055;-79
2022/04/18 09:03:02;;;;;;;6.50;3.53;;;;;;;;;;8372929;28;20133;-78
2022/04/18 09:07:29;;;;;;;5.80;3.45;;;;;;;;;;8389818;28;20045;-77
2022/04/18 09:12:00;;;;;;;7.88;4.30;;;;;;;;;;8383605;28;20041;-77
2022/04/18 09:17:01;;;;;;;5.57;2.95;;;;;;;;;;8368238;28;20145;-78
2022/04/18 09:21:06;;;;;;;6.30;3.30;;;;;;;;;;8378697;28;20520;-78
2022/04/18 09:25:16;;;;;;;8.50;3.78;;;;;;;;;;8397546;28;20049;-79
2022/04/18 09:29:23;;;;;;;5.13;2.95;;;;;;;;;;8379728;28;20396;-77
2022/04/18 09:33:33;;;;;;;4.18;2.35;;;;;;;;;;8382318;28;20548;-79
2022/04/18 09:37:44;;;;;;;4.03;2.08;;;;;;;;;;8395058;28;20099;-79
2022/04/18 09:41:51;;;;;;;4.28;2.20;;;;;;;;;;8364158;28;20066;-82
2022/04/18 09:46:05;;;;;;;5.32;3.03;;;;;;;;;;8395393;28;20049;-78
2022/04/18 09:55:12;;;;;;;7.55;3.90;;;;;;;;;;8371935;28;20072;-79
2022/04/18 09:59:36;;;;;;;3.53;2.00;;;;;;;;;;8394045;28;20075;-79
2022/04/18 10:03:46;;;;;;;4.60;2.80;;;;;;;;;;8402336;28;20062;-78
2022/04/18 10:13:16;;;;;;;5.63;2.65;;;;;;;;;;8373501;28;20047;-78
2022/04/18 10:17:39;;;;;;;4.25;2.65;;;;;;;;;;8398686;28;20565;-82
2022/04/18 10:21:56;;;;;;;3.72;2.13;;;;;;;;;;8400626;28;20123;-82
2022/04/18 10:26:43;;;;;;;4.68;2.28;;;;;;;;;;8397432;28;20047;-82
2022/04/18 10:30:55;;;;;;;6.15;3.17;;;;;;;;;;8402396;28;20064;-81
2022/04/18 10:35:05;;;;;;;4.30;2.58;;;;;;;;;;8398823;28;20048;-80
2022/04/18 10:39:43;;;;;;;6.40;3.05;;;;;;;;;;8369451;28;20053;-81
2022/04/18 10:44:08;;;;;;;7.03;3.28;;;;;;;;;;8397547;28;20505;-80
2022/04/18 10:48:41;;;;;;;20.83;11.20;;;;;;;;;;8400752;28;20385;-79
2022/04/18 11:04:26;;;;;;;3.15;2.10;;;;;;;;;;8373496;28;20151;-81
2022/04/18 11:14:32;;;;;;;11.15;6.80;;;;;;;;;;8388462;28;20064;-81
2022/04/18 11:18:41;;;;;;;6.97;3.08;;;;;;;;;;8390391;28;20119;-81
2022/04/18 11:23:22;;;;;;;7.50;3.95;;;;;;;;;;8382036;28;20040;-83
2022/04/18 11:27:44;;;;;;;5.25;2.90;;;;;;;;;;8285346;28;20144;-81
2022/04/18 11:37:24;;;;;;;3.20;1.90;;;;;;;;;;8388078;28;20044;-81
2022/04/18 11:41:28;;;;;;;5.35;2.85;;;;;;;;;;8395178;28;20086;-81
2022/04/18 11:45:31;;;;;;;5.85;3.25;;;;;;;;;;8370364;28;20500;-79
2022/04/18 11:49:36;;;;;;;9.27;3.20;;;;;;;;;;8389281;28;20455;-79
2022/04/18 11:53:42;;;;;;;5.32;2.42;;;;;;;;;;8390597;28;20052;-80
2022/04/18 11:57:51;;;;;;;9.30;3.55;;;;;;;;;;8396771;28;20492;-80
2022/04/18 12:10:46;;;;;;;2.47;1.92;;;;;;;;;;8398725;28;20404;-80
2022/04/18 12:14:51;;;;;;;3.15;2.00;;;;;;;;;;8398549;28;20083;-79
2022/04/18 12:18:57;;;;;;;3.22;1.90;;;;;;;;;;8397155;28;20044;-79
2022/04/18 12:23:02;;;;;;;4.55;2.22;;;;;;;;;;8397186;28;20515;-80
2022/04/18 12:27:10;;;;;;;2.63;1.77;;;;;;;;;;8397728;28;20042;-80
2022/04/18 12:31:28;;;;;;;2.38;1.80;;;;;;;;;;8398703;28;20128;-79
2022/04/18 12:35:41;;;;;;;3.97;2.00;;;;;;;;;;8386830;28;20052;-79
2022/04/18 12:39:46;;;;;;;6.07;2.88;;;;;;;;;;8395952;28;20450;-80
2022/04/18 12:43:53;;;;;;;3.75;1.60;;;;;;;;;;8397829;28;20055;-79
2022/04/18 12:48:05;;;;;;;3.90;2.00;;;;;;;;;;8395820;28;20040;-80
2022/04/18 12:52:08;;;;;;;7.72;3.53;;;;;;;;;;8396913;28;20063;-79
2022/04/18 12:56:13;;;;;;;4.78;2.33;;;;;;;;;;8388649;28;20087;-80
2022/04/18 13:00:19;;;;;;;3.70;1.95;;;;;;;;;;8382934;28;20459;-84
2022/04/18 13:04:29;;;;;;;5.32;2.40;;;;;;;;;;8381796;28;20079;-80
2022/04/18 13:08:43;;;;;;;2.85;1.70;;;;;;;;;;8392892;28;20105;-83
2022/04/18 13:12:46;;;;;;;2.92;1.85;;;;;;;;;;8390082;28;20045;-84
2022/04/18 13:17:06;;;;;;;4.20;1.90;;;;;;;;;;8388714;28;20052;-80
2022/04/18 13:21:11;;;;;;;3.35;1.75;;;;;;;;;;8389520;28;20538;-83
2022/04/18 13:25:17;;;;;;;4.22;2.40;;;;;;;;;;8381781;28;20128;-79
2022/04/18 13:29:20;;;;;;;3.00;1.90;;;;;;;;;;8385046;28;20090;-83
2022/04/18 13:33:27;;;;;;;2.83;1.83;;;;;;;;;;8381670;28;20405;-80
2022/04/18 13:37:32;;;;;;;3.40;2.15;;;;;;;;;;8399418;28;20056;-80
2022/04/18 13:41:43;;;;;;;3.83;1.70;;;;;;;;;;8391694;28;20404;-80
2022/04/18 13:45:49;;;;;;;1.85;1.60;;;;;;;;;;8391556;28;20419;-81
2022/04/18 13:49:59;;;;;;;4.43;1.80;;;;;;;;;;8387710;28;20485;-81
2022/04/18 13:54:05;;;;;;;3.83;2.17;;;;;;;;;;8392268;28;20428;-80
2022/04/18 13:58:11;;;;;;;3.35;2.05;;;;;;;;;;8390755;28;20087;-81
2022/04/18 14:02:14;;;;;;;2.92;1.75;;;;;;;;;;8381357;28;20060;-82
2022/04/18 14:06:19;;;;;;;2.50;1.52;;;;;;;;;;8386059;28;20480;-80
2022/04/18 14:10:22;;;;;;;4.35;2.25;;;;;;;;;;8387738;28;20053;-80
2022/04/18 14:23:08;;;;;;;5.88;2.95;;;;;;;;;;8379318;28;20477;-84
2022/04/18 14:27:12;;;;;;;3.88;2.28;;;;;;;;;;8377686;28;20142;-84
2022/04/18 14:31:16;;;;;;;3.85;2.05;;;;;;;;;;8390523;28;20040;-89
2022/04/18 14:35:21;;;;;;;2.97;1.92;;;;;;;;;;8371240;28;20059;-90
2022/04/18 14:39:26;;;;;;;5.75;2.20;;;;;;;;;;8375496;28;20048;-87
2022/04/18 14:43:29;;;;;;;2.45;1.80;;;;;;;;;;8375653;28;20051;-91
2022/04/18 14:47:32;;;;;;;4.97;1.95;;;;;;;;;;8371332;28;20123;-86
2022/04/18 14:51:35;;;;;;;6.03;3.53;;;;;;;;;;8371765;28;20048;-86
2022/04/18 14:55:40;;;;;;;32.03;14.45;;;;;;;;;;8369683;28;20564;-87
2022/04/18 14:59:43;;;;;;;4.50;1.80;;;;;;;;;;8372334;28;20052;-83
2022/04/18 15:03:47;;;;;;;7.03;3.80;;;;;;;;;;8385126;28;20041;-87
2022/04/18 15:07:50;;;;;;;49.03;16.50;;;;;;;;;;8383083;28;20511;-89
2022/04/18 15:11:54;;;;;;;6.30;2.20;;;;;;;;;;8390485;28;20041;-86
2022/04/18 15:15:57;;;;;;;3.63;1.85;;;;;;;;;;8387042;28;20066;-88
2022/04/18 15:20:00;;;;;;;3.80;1.80;;;;;;;;;;8394785;28;20491;-85
2022/04/18 15:24:04;;;;;;;3.03;2.08;;;;;;;;;;8370091;28;20127;-90
2022/04/18 15:28:08;;;;;;;4.35;2.03;;;;;;;;;;8381053;28;20046;-84
2022/04/18 15:32:11;;;;;;;6.90;3.08;;;;;;;;;;8381701;28;20086;-89
2022/04/18 15:36:15;;;;;;;5.07;2.38;;;;;;;;;;8388506;28;20083;-84
2022/04/18 15:40:20;;;;;;;3.78;2.20;;;;;;;;;;8389824;28;20040;-84
2022/04/18 15:44:28;;;;;;;6.35;2.63;;;;;;;;;;8378265;28;20113;-83
2022/04/18 15:48:35;;;;;;;7.38;3.22;;;;;;;;;;8379264;28;20083;-85
2022/04/18 15:52:38;;;;;;;5.82;2.67;;;;;;;;;;8377614;28;20083;-89
2022/04/18 15:56:44;;;;;;;5.10;2.53;;;;;;;;;;8373374;28;20135;-88
2022/04/18 16:00:49;;;;;;;5.55;2.13;;;;;;;;;;8371643;28;20041;-84
2022/04/18 16:04:53;;;;;;;6.90;2.67;;;;;;;;;;8386100;28;20048;-84
2022/04/18 16:09:06;;;;;;;3.13;1.73;;;;;;;;;;8391902;28;20043;-83
2022/04/18 16:13:18;;;;;;;5.18;3.20;;;;;;;;;;8383237;28;20049;-90
2022/04/18 16:17:27;;;;;;;4.35;2.03;;;;;;;;;;8382001;28;20068;-87
2022/04/18 16:21:33;;;;;;;2.17;1.60;;;;;;;;;;8390085;28;20055;-83
2022/04/18 16:25:38;;;;;;;5.50;2.22;;;;;;;;;;8378120;28;20056;-85
2022/04/18 16:34:10;;;;;;;3.13;1.88;;;;;;;;;;8340439;28;20131;-87
2022/04/18 16:38:13;;;;;;;5.57;2.45;;;;;;;;;;8370137;28;20052;-86
2022/04/18 16:46:55;;;;;;;3.80;2.22;;;;;;;;;;8390360;28;20515;-85
2022/04/18 16:51:02;;;;;;;5.88;2.33;;;;;;;;;;8384243;28;20496;-84
2022/04/18 16:55:11;;;;;;;6.38;2.67;;;;;;;;;;8389503;28;20047;-89
2022/04/18 16:59:19;;;;;;;6.75;3.00;;;;;;;;;;8368510;28;20067;-84
2022/04/18 17:03:24;;;;;;;8.07;3.42;;;;;;;;;;8389723;28;20044;-89
2022/04/18 17:08:10;;;;;;;6.18;2.97;;;;;;;;;;8364853;28;20472;-85
2022/04/18 17:12:18;;;;;;;5.93;3.30;;;;;;;;;;8363707;28;20041;-85
2022/04/18 17:16:31;;;;;;;6.65;3.45;;;;;;;;;;8367139;28;20060;-85
2022/04/18 17:20:36;;;;;;;18.95;7.63;;;;;;;;;;8387926;28;20072;-84
2022/04/18 17:24:44;;;;;;;7.50;3.60;;;;;;;;;;8374659;28;20477;-84
2022/04/18 17:28:48;;;;;;;7.50;3.85;;;;;;;;;;8371858;28;20147;-85
2022/04/18 17:32:56;;;;;;;8.23;4.13;;;;;;;;;;8376847;28;20097;-87
2022/04/18 17:37:00;;;;;;;21.40;8.82;;;;;;;;;;8370836;28;20045;-86
2022/04/18 17:41:06;;;;;;;20.95;10.20;;;;;;;;;;8369254;28;20049;-90
2022/04/18 17:45:10;;;;;;;16.55;7.65;;;;;;;;;;8378349;28;20044;-84
2022/04/18 17:49:15;;;;;;;30.90;12.85;;;;;;;;;;8372252;28;20047;-90
2022/04/18 17:57:43;;;;;;;;;;;;;;;;;;8376850;28;20049;-85
2022/04/18 18:01:46;;;;;;;27.95;12.10;;;;;;;;;;8376136;28;19925;-84
2022/04/18 18:05:51;;;;;;;25.85;10.32;;;;;;;;;;8380731;28;20051;-85
2022/04/18 18:09:55;;;;;;;26.80;11.38;;;;;;;;;;8362740;28;20461;-85
2022/04/18 18:14:00;;;;;;;19.65;9.65;;;;;;;;;;8373066;28;20049;-84
2022/04/18 18:18:04;;;;;;;23.05;10.38;;;;;;;;;;8379432;28;20045;-84
2022/04/18 18:22:14;;;;;;;30.98;13.45;;;;;;;;;;8359886;28;20053;-84
2022/04/18 18:26:18;;;;;;;31.98;13.10;;;;;;;;;;8378576;28;20043;-85
2022/04/18 18:30:25;;;;;;;33.38;14.63;;;;;;;;;;8380769;28;20048;-90
2022/04/18 18:34:30;;;;;;;36.47;16.70;;;;;;;;;;8377495;28;20044;-84
2022/04/18 18:38:34;;;;;;;16.40;6.32;;;;;;;;;;8385628;28;20044;-84
2022/04/18 18:42:37;;;;;;;21.70;10.15;;;;;;;;;;8382516;28;20044;-84
2022/04/18 18:46:43;;;;;;;15.65;6.90;;;;;;;;;;8388655;28;20048;-84
2022/04/18 18:55:10;;;;;;;11.57;5.78;;;;;;;;;;8384031;28;20206;-88
2022/04/18 18:59:13;;;;;;;122.13;38.33;;;;;;;;;;8384919;28;20079;-86
2022/04/18 19:03:20;;;;;;;150.63;46.83;;;;;;;;;;8385139;28;20412;-86
2022/04/18 19:07:26;;;;;;;73.75;25.98;;;;;;;;;;8368419;28;20052;-85
2022/04/18 19:11:29;;;;;;;298.55;84.18;;;;;;;;;;8368387;28;20045;-85
2022/04/18 19:15:32;;;;;;;277.50;73.70;;;;;;;;;;8367775;28;20303;-84
2022/04/18 19:28:17;;;;;;;34.20;13.77;;;;;;;;;;8367721;28;20110;-87
2022/04/18 19:32:21;;;;;;;90.93;27.13;;;;;;;;;;8368145;28;20049;-85
2022/04/18 19:36:26;;;;;;;94.88;26.38;;;;;;;;;;8367495;28;20406;-85
2022/04/18 19:40:29;;;;;;;72.88;23.42;;;;;;;;;;8367345;28;20049;-85
2022/04/18 19:44:33;;;;;;;64.78;17.23;;;;;;;;;;8367268;28;20473;-87
2022/04/18 19:48:37;;;;;;;27.92;7.28;;;;;;;;;;8366673;28;20416;-86
2022/04/18 19:52:44;;;;;;;9.23;3.80;;;;;;;;;;8367227;28;20044;-84
2022/04/18 19:56:48;;;;;;;5.60;3.17;;;;;;;;;;8366811;28;20461;-89
2022/04/18 20:00:52;;;;;;;9.30;3.53;;;;;;;;;;8366766;28;20453;-85
2022/04/18 20:04:55;;;;;;;8.43;3.55;;;;;;;;;;8367095;28;20082;-85
2022/04/18 20:09:00;;;;;;;7.68;3.67;;;;;;;;;;8366922;28;20045;-84
2022/04/18 20:13:04;;;;;;;5.88;2.90;;;;;;;;;;8366333;28;20048;-85
2022/04/18 20:17:11;;;;;;;5.53;2.72;;;;;;;;;;8366164;28;20068;-85
2022/04/18 20:21:16;;;;;;;5.03;2.50;;;;;;;;;;8366174;28;20045;-85
2022/04/18 20:25:21;;;;;;;5.80;2.60;;;;;;;;;;8366039;28;20033;-85
2022/04/18 20:29:24;;;;;;;120.72;29.42;;;;;;;;;;8365780;28;20041;-84
2022/04/18 20:33:28;;;;;;;68.47;20.48;;;;;;;;;;8366164;28;20045;-85
2022/04/18 20:37:35;;;;;;;8.95;4.47;;;;;;;;;;8365368;28;20049;-84
2022/04/18 20:41:40;;;;;;;6.00;2.83;;;;;;;;;;8365508;28;20447;-84
2022/04/18 20:45:44;;;;;;;7.03;3.55;;;;;;;;;;8365333;28;20083;-84
2022/04/18 20:49:47;;;;;;;44.78;14.90;;;;;;;;;;8365052;28;20045;-84
2022/04/18 21:02:42;;;;;;;4.88;2.83;;;;;;;;;;8340064;28;20064;-84
2022/04/18 21:06:46;;;;;;;8.82;4.57;;;;;;;;;;8364796;28;20115;-88
2022/04/18 21:10:49;;;;;;;6.20;2.85;;;;;;;;;;8364569;28;20132;-84
2022/04/18 21:14:53;;;;;;;5.80;2.53;;;;;;;;;;8364004;28;20136;-84
2022/04/18 21:18:56;;;;;;;5.38;2.90;;;;;;;;;;8364168;28;20052;-84
2022/04/18 21:23:00;;;;;;;4.68;2.90;;;;;;;;;;8364532;28;20045;-84
2022/04/18 21:27:03;;;;;;;4.40;2.33;;;;;;;;;;8364539;28;20061;-84
2022/04/18 21:31:07;;;;;;;7.47;2.92;;;;;;;;;;8363956;28;20489;-84
2022/04/18 21:35:11;;;;;;;4.38;3.08;;;;;;;;;;8364231;28;20071;-84
2022/04/18 21:39:13;;;;;;;4.20;2.78;;;;;;;;;;8363682;28;20175;-89
2022/04/18 21:43:16;;;;;;;7.25;3.30;;;;;;;;;;8364082;28;20045;-84
2022/04/18 21:47:21;;;;;;;5.72;3.22;;;;;;;;;;8363464;28;20041;-85
2022/04/18 21:51:25;;;;;;;4.85;2.88;;;;;;;;;;8363438;28;20485;-84
2022/04/18 21:55:28;;;;;;;6.65;3.00;;;;;;;;;;8363368;28;20433;-88
2022/04/18 21:59:31;;;;;;;7.82;3.10;;;;;;;;;;8363939;28;20491;-84
2022/04/18 22:03:36;;;;;;;8.30;3.53;;;;;;;;;;8363281;28;20295;-89
2022/04/18 22:07:38;;;;;;;4.85;2.78;;;;;;;;;;8364337;28;20052;-85
2022/04/18 22:11:41;;;;;;;8.63;2.92;;;;;;;;;;8378758;28;20045;-85
2022/04/18 22:15:44;;;;;;;6.80;3.92;;;;;;;;;;8382897;28;20045;-84
2022/04/18 22:28:28;;;;;;;5.25;2.97;;;;;;;;;;8369708;28;20048;-86
2022/04/18 22:32:31;;;;;;;6.10;3.25;;;;;;;;;;8369483;28;20045;-89
2022/04/18 22:36:36;;;;;;;8.10;3.72;;;;;;;;;;8369782;28;20049;-88
2022/04/18 22:40:39;;;;;;;13.43;7.60;;;;;;;;;;8380565;28;20049;-87
2022/04/18 22:44:42;;;;;;;6.07;3.75;;;;;;;;;;8369244;28;20040;-88
2022/04/18 22:48:45;;;;;;;5.55;3.63;;;;;;;;;;8369018;28;20052;-84
2022/04/18 22:52:49;;;;;;;6.20;3.65;;;;;;;;;;8368826;28;20041;-84
2022/04/18 22:56:51;;;;;;;6.45;3.58;;;;;;;;;;8369183;28;20072;-87
2022/04/18 23:00:54;;;;;;;7.68;3.97;;;;;;;;;;8374045;28;20040;-84
2022/04/18 23:09:19;;;;;;;5.47;3.45;;;;;;;;;;8368481;28;20052;-84
2022/04/18 23:13:21;;;;;;;6.80;4.10;;;;;;;;;;8369027;28;20091;-85
2022/04/18 23:17:24;;;;;;;7.55;3.47;;;;;;;;;;8367629;28;20428;-84
2022/04/18 23:21:26;;;;;;;6.85;3.85;;;;;;;;;;8365444;28;20485;-84
2022/04/18 23:25:31;;;;;;;6.70;4.07;;;;;;;;;;8366093;28;20052;-84
2022/04/18 23:29:33;;;;;;;6.13;3.70;;;;;;;;;;8366282;28;20492;-85
2022/04/18 23:33:36;;;;;;;8.00;3.85;;;;;;;;;;8367229;28;20453;-85
2022/04/18 23:37:39;;;;;;;6.40;3.35;;;;;;;;;;8367501;28;20049;-84
2022/04/18 23:41:49;;;;;;;7.32;3.75;;;;;;;;;;8367814;28;20041;-84
2022/04/18 23:45:51;;;;;;;5.20;3.08;;;;;;;;;;8367691;28;20128;-84
2022/04/18 23:50:47;;;;;;;4.97;3.47;;;;;;;;;;8367060;28;20048;-84
2022/04/18 23:54:16;;;;;;;4.63;3.10;;;;;;;;;;8366822;28;20045;-83
2022/04/18 23:58:22;;;;;;;5.22;3.25;;;;;;;;;;8366821;28;20186;-84
